createdAt,value
2018-04-12T00:01:42.102Z,13.10
2018-04-12T00:04:10.460Z,13.10
2018-04-12T00:06:38.062Z,13.10
2018-04-12T00:09:06.444Z,13.00
2018-04-12T00:11:34.039Z,13.10
2018-04-12T00:14:01.669Z,13.10
2018-04-12T00:16:29.255Z,13.10
2018-04-12T00:18:56.849Z,13.10
2018-04-12T00:21:24.456Z,13.10
2018-04-12T00:23:52.048Z,13.00
2018-04-12T00:26:19.703Z,13.00
2018-04-12T00:28:47.337Z,13.00
2018-04-12T00:31:14.917Z,13.00
2018-04-12T00:33:42.531Z,12.90
2018-04-12T00:36:10.925Z,12.90
2018-04-12T00:38:38.512Z,12.90
2018-04-12T00:41:06.106Z,12.90
2018-04-12T00:43:33.735Z,12.90
2018-04-12T00:46:01.356Z,12.90
2018-04-12T00:48:29.755Z,12.80
2018-04-12T00:50:57.377Z,12.80
2018-04-12T00:53:37.019Z,12.80
2018-04-12T00:56:04.601Z,12.80
2018-04-12T00:58:32.988Z,12.80
2018-04-12T01:01:01.372Z,12.80
2018-04-12T01:03:28.977Z,12.80
2018-04-12T01:05:56.597Z,12.80
2018-04-12T01:08:24.997Z,12.80
2018-04-12T01:10:52.630Z,12.80
2018-04-12T01:13:21.048Z,12.90
2018-04-12T01:15:48.655Z,12.80
2018-04-12T01:18:17.369Z,12.80
2018-04-12T01:20:44.981Z,12.80
2018-04-12T01:23:12.601Z,12.80
2018-04-12T01:31:26.924Z,12.80
2018-04-12T01:33:54.493Z,12.80
2018-04-12T01:36:22.047Z,12.80
2018-04-12T01:38:49.679Z,12.80
2018-04-12T01:41:17.269Z,12.80
2018-04-12T01:43:44.847Z,12.80
2018-04-12T01:46:12.466Z,12.80
2018-04-12T01:48:40.071Z,12.80
2018-04-12T01:51:07.698Z,12.80
2018-04-12T01:53:35.314Z,12.80
2018-04-12T01:56:02.988Z,12.80
2018-04-12T01:58:30.590Z,12.70
2018-04-12T02:00:58.166Z,12.70
2018-04-12T02:03:25.768Z,12.80
2018-04-12T02:05:53.324Z,12.70
2018-04-12T02:08:20.983Z,12.70
2018-04-12T02:10:48.778Z,12.70
2018-04-12T02:13:16.367Z,12.70
2018-04-12T02:15:43.957Z,12.70
2018-04-12T02:18:12.329Z,12.80
2018-04-12T02:20:40.697Z,12.80
2018-04-12T02:23:08.301Z,12.80
2018-04-12T02:25:35.858Z,12.80
2018-04-12T02:28:03.448Z,12.80
2018-04-12T02:30:31.067Z,12.80
2018-04-12T02:32:58.707Z,12.80
2018-04-12T02:35:27.095Z,12.80
2018-04-12T02:37:55.463Z,12.80
2018-04-12T02:40:23.879Z,12.80
2018-04-12T02:42:51.488Z,12.80
2018-04-12T02:45:19.860Z,12.80
2018-04-12T02:47:47.460Z,12.80
2018-04-12T02:50:15.824Z,12.80
2018-04-12T02:52:44.238Z,12.80
2018-04-12T02:55:11.828Z,12.80
2018-04-12T02:57:39.420Z,12.80
2018-04-12T03:00:07.048Z,12.80
2018-04-12T03:02:34.655Z,12.70
2018-04-12T03:05:02.267Z,12.70
2018-04-12T03:07:29.876Z,12.60
2018-04-12T03:09:58.252Z,12.50
2018-04-12T03:12:27.230Z,12.50
2018-04-12T03:14:54.856Z,12.50
2018-04-12T03:17:22.480Z,12.50
2018-04-12T03:19:50.077Z,12.50
2018-04-12T03:22:17.666Z,12.50
2018-04-12T03:24:45.276Z,12.40
2018-04-12T03:27:12.910Z,12.40
2018-04-12T03:29:41.242Z,12.40
2018-04-12T03:32:09.698Z,12.40
2018-04-12T03:34:37.326Z,12.40
2018-04-12T03:37:05.670Z,12.50
2018-04-12T03:39:33.296Z,12.40
2018-04-12T03:42:00.898Z,12.40
2018-04-12T03:44:28.496Z,12.40
2018-04-12T03:46:56.833Z,12.40
2018-04-12T03:49:24.527Z,12.40
2018-04-12T03:51:52.100Z,12.30
2018-04-12T03:54:19.698Z,12.40
2018-04-12T03:56:47.298Z,12.30
2018-04-12T03:59:20.668Z,12.40
2018-04-12T04:01:49.112Z,12.30
2018-04-12T04:04:16.637Z,12.30
2018-04-12T04:06:44.218Z,12.30
2018-04-12T04:09:11.851Z,12.30
2018-04-12T04:11:39.428Z,12.30
2018-04-12T04:14:07.824Z,12.30
2018-04-12T04:16:47.396Z,12.30
2018-04-12T04:19:26.971Z,12.30
2018-04-12T04:21:54.560Z,12.30
2018-04-12T04:24:22.172Z,12.30
2018-04-12T04:26:49.784Z,12.20
2018-04-12T04:29:17.377Z,12.20
2018-04-12T04:31:45.030Z,12.20
2018-04-12T04:34:13.367Z,12.20
2018-04-12T04:36:40.986Z,12.10
2018-04-12T04:42:12.573Z,12.20
2018-04-12T04:44:40.177Z,12.10
2018-04-12T04:47:07.773Z,12.20
2018-04-12T04:49:35.386Z,12.20
2018-04-12T04:52:03.035Z,12.20
2018-04-12T04:54:40.525Z,12.20
2018-04-12T04:57:08.120Z,12.20
2018-04-12T04:59:35.743Z,12.20
2018-04-12T05:02:03.348Z,12.20
2018-04-12T05:04:31.715Z,12.20
2018-04-12T05:06:59.325Z,12.20
2018-04-12T05:09:26.923Z,12.20
2018-04-12T05:11:54.493Z,12.30
2018-04-12T05:14:22.205Z,12.30
2018-04-12T05:16:49.757Z,12.30
2018-04-12T05:19:17.387Z,12.30
2018-04-12T05:21:44.996Z,12.40
2018-04-12T05:24:12.608Z,12.40
2018-04-12T05:26:40.984Z,12.50
2018-04-12T05:29:15.397Z,12.60
2018-04-12T05:31:42.984Z,12.50
2018-04-12T05:34:11.377Z,12.80
2018-04-12T05:36:39.017Z,12.80
2018-04-12T05:39:07.367Z,13.00
2018-04-12T05:41:34.983Z,13.00
2018-04-12T05:44:02.563Z,13.20
2018-04-12T05:46:30.166Z,13.30
2018-04-12T05:48:58.549Z,13.60
2018-04-12T05:51:26.893Z,13.70
2018-04-12T05:53:54.492Z,13.60
2018-04-12T05:56:22.806Z,13.80
2018-04-12T05:58:50.444Z,13.70
2018-04-12T06:01:18.020Z,13.80
2018-04-12T06:03:45.590Z,13.80
2018-04-12T06:06:13.216Z,13.90
2018-04-12T06:08:41.578Z,13.80
2018-04-12T06:11:09.167Z,13.80
2018-04-12T06:13:36.752Z,13.80
2018-04-12T06:16:04.355Z,13.70
2018-04-12T06:18:36.414Z,13.70
2018-04-12T06:21:04.051Z,13.70
2018-04-12T06:23:31.656Z,13.80
2018-04-12T06:26:00.048Z,13.90
2018-04-12T06:28:27.695Z,13.90
2018-04-12T06:30:55.268Z,14.00
2018-04-12T06:33:22.834Z,14.10
2018-04-12T06:35:50.437Z,14.30
2018-04-12T06:38:18.033Z,14.50
2018-04-12T06:40:45.667Z,14.60
2018-04-12T06:43:13.302Z,14.80
2018-04-12T06:45:40.893Z,15.00
2018-04-12T06:48:08.508Z,15.10
2018-04-12T06:50:36.114Z,15.10
2018-04-12T06:53:03.698Z,15.20
2018-04-12T06:55:32.039Z,15.80
2018-04-12T06:57:59.672Z,15.80
2018-04-12T07:00:27.251Z,16.10
2018-04-12T07:02:54.868Z,16.30
2018-04-12T07:05:22.491Z,16.60
2018-04-12T07:07:50.201Z,16.90
2018-04-12T07:10:17.769Z,17.10
2018-04-12T07:12:45.399Z,17.00
2018-04-12T07:15:13.774Z,17.00
2018-04-12T07:17:41.498Z,17.00
2018-04-12T07:20:09.119Z,17.20
2018-04-12T07:22:36.753Z,17.20
2018-04-12T07:25:04.334Z,17.20
2018-04-12T07:27:32.691Z,17.20
2018-04-12T07:30:00.271Z,17.20
2018-04-12T07:32:27.884Z,17.50
2018-04-12T07:34:55.487Z,17.70
2018-04-12T07:37:23.847Z,17.80
2018-04-12T07:39:51.494Z,17.80
2018-04-12T07:42:19.071Z,17.80
2018-04-12T07:44:46.645Z,17.90
2018-04-12T07:47:14.993Z,18.10
2018-04-12T07:49:42.597Z,18.20
2018-04-12T07:52:10.992Z,18.30
2018-04-12T07:54:38.609Z,18.30
2018-04-12T07:57:06.214Z,18.50
2018-04-12T07:59:33.834Z,18.70
2018-04-12T08:02:01.460Z,18.60
2018-04-12T08:04:29.051Z,18.70
2018-04-12T08:06:56.990Z,19.00
2018-04-12T08:09:25.851Z,19.10
2018-04-12T08:11:56.122Z,19.20
2018-04-12T08:14:24.529Z,19.40
2018-04-12T08:16:52.882Z,19.50
2018-04-12T08:19:20.525Z,19.50
2018-04-12T08:21:49.149Z,19.90
2018-04-12T08:24:17.395Z,19.90
2018-04-12T08:26:45.001Z,20.30
2018-04-12T08:29:13.092Z,20.40
2018-04-12T08:31:40.792Z,20.40
2018-04-12T08:34:08.382Z,20.50
2018-04-12T08:36:36.005Z,20.60
2018-04-12T08:39:03.693Z,20.60
2018-04-12T08:41:40.467Z,20.80
2018-04-12T08:44:08.913Z,21.00
2018-04-12T08:46:36.500Z,21.00
2018-04-12T08:49:04.246Z,21.10
2018-04-12T08:51:31.813Z,21.20
2018-04-12T08:53:59.423Z,21.30
2018-04-12T08:56:27.030Z,21.50
2018-04-12T08:58:54.604Z,21.70
2018-04-12T09:01:22.242Z,21.80
2018-04-12T09:03:49.858Z,21.60
2018-04-12T09:06:18.227Z,21.60
2018-04-12T09:08:46.570Z,21.60
2018-04-12T09:11:14.219Z,21.60
2018-04-12T09:13:41.847Z,21.70
2018-04-12T09:16:09.487Z,21.70
2018-04-12T09:18:37.062Z,21.70
2018-04-12T09:21:05.402Z,21.80
2018-04-12T09:23:34.134Z,21.80
2018-04-12T09:26:01.739Z,21.80
2018-04-12T09:28:29.346Z,21.80
2018-04-12T09:30:57.738Z,21.90
2018-04-12T09:33:25.329Z,21.90
2018-04-12T09:35:52.948Z,21.90
2018-04-12T09:38:20.584Z,22.00
2018-04-12T09:40:48.185Z,22.20
2018-04-12T09:43:15.806Z,22.20
2018-04-12T09:45:43.389Z,22.30
2018-04-12T09:48:11.765Z,22.30
2018-04-12T09:50:40.118Z,22.40
2018-04-12T09:53:07.728Z,22.30
2018-04-12T09:55:35.317Z,22.30
2018-04-12T09:58:02.922Z,22.40
2018-04-12T10:00:31.239Z,22.60
2018-04-12T10:02:58.871Z,22.60
2018-04-12T10:05:30.185Z,22.90
2018-04-12T10:08:03.447Z,22.90
2018-04-12T10:10:31.068Z,23.00
2018-04-12T10:12:59.432Z,23.20
2018-04-12T10:15:27.022Z,23.20
2018-04-12T10:17:54.636Z,23.30
2018-04-12T10:20:22.291Z,23.20
2018-04-12T10:22:49.875Z,23.30
2018-04-12T10:25:17.492Z,23.30
2018-04-12T10:27:45.127Z,23.30
2018-04-12T10:30:12.757Z,23.40
2018-04-12T10:32:41.153Z,23.70
2018-04-12T10:35:09.545Z,23.50
2018-04-12T10:37:37.171Z,23.50
2018-04-12T10:40:04.788Z,23.30
2018-04-12T10:42:32.396Z,23.40
2018-04-12T10:45:00.029Z,23.30
2018-04-12T10:47:27.591Z,23.70
2018-04-12T10:49:55.201Z,24.10
2018-04-12T10:52:23.590Z,24.30
2018-04-12T10:54:51.180Z,24.30
2018-04-12T10:57:18.772Z,24.10
2018-04-12T10:59:46.374Z,24.30
2018-04-12T11:02:13.996Z,24.60
2018-04-12T11:04:41.629Z,24.80
2018-04-12T11:07:09.261Z,25.00
2018-04-12T11:09:36.864Z,25.20
2018-04-12T11:12:04.481Z,25.40
2018-04-12T11:14:32.096Z,24.90
2018-04-12T11:16:59.671Z,24.80
2018-04-12T11:19:28.082Z,24.90
2018-04-12T11:21:55.708Z,24.90
2018-04-12T11:24:24.070Z,25.40
2018-04-12T11:26:51.685Z,25.40
2018-04-12T11:29:19.276Z,25.50
2018-04-12T11:31:46.930Z,25.80
2018-04-12T11:34:14.556Z,25.60
2018-04-12T11:36:42.111Z,25.60
2018-04-12T11:39:09.716Z,25.60
2018-04-12T11:41:37.302Z,25.30
2018-04-12T11:44:05.694Z,25.40
2018-04-12T11:46:34.052Z,25.20
2018-04-12T11:49:01.697Z,25.20
2018-04-12T11:51:29.272Z,25.00
2018-04-12T11:53:56.857Z,24.80
2018-04-12T11:56:25.232Z,25.10
2018-04-12T11:58:53.630Z,25.20
2018-04-12T12:01:21.215Z,25.20
2018-04-12T12:03:48.806Z,25.60
2018-04-12T12:06:16.415Z,25.70
2018-04-12T12:08:44.002Z,25.80
2018-04-12T12:11:11.580Z,25.70
2018-04-12T12:13:39.209Z,25.30
2018-04-12T12:16:06.821Z,25.30
2018-04-12T12:18:34.427Z,25.20
2018-04-12T12:21:02.077Z,25.40
2018-04-12T12:23:29.665Z,25.30
2018-04-12T12:25:57.252Z,25.60
2018-04-12T12:28:24.846Z,25.80
2018-04-12T12:30:53.215Z,26.30
2018-04-12T12:33:21.589Z,26.10
2018-04-12T12:35:49.232Z,26.10
2018-04-12T12:38:16.819Z,25.80
2018-04-12T12:40:45.283Z,25.10
2018-04-12T12:43:12.882Z,25.00
2018-04-12T12:45:40.472Z,24.80
2018-04-12T12:48:08.112Z,24.70
2018-04-12T12:50:47.280Z,24.70
2018-04-12T12:53:14.900Z,25.00
2018-04-12T12:55:42.489Z,25.40
2018-04-12T12:58:15.777Z,25.40
2018-04-12T13:00:43.385Z,25.30
2018-04-12T13:03:17.369Z,24.80
2018-04-12T13:05:44.983Z,24.80
2018-04-12T13:08:18.290Z,24.50
2018-04-12T13:10:45.908Z,24.70
2018-04-12T13:13:14.266Z,25.00
2018-04-12T13:15:41.854Z,25.00
2018-04-12T13:18:10.240Z,25.30
2018-04-12T13:20:37.864Z,25.20
2018-04-12T13:23:05.499Z,25.40
2018-04-12T13:25:33.120Z,25.20
2018-04-12T13:28:01.479Z,25.10
2018-04-12T13:30:29.074Z,25.10
2018-04-12T13:32:58.698Z,25.90
2018-04-12T13:35:34.282Z,26.20
2018-04-12T13:38:01.971Z,26.10
2018-04-12T13:40:29.526Z,25.80
2018-04-12T13:42:57.122Z,25.60
2018-04-12T13:45:24.730Z,25.80
2018-04-12T13:47:52.305Z,25.70
2018-04-12T13:50:26.502Z,25.90
2018-04-12T13:52:54.091Z,25.90
2018-04-12T13:55:28.350Z,26.10
2018-04-12T13:57:56.129Z,26.10
2018-04-12T14:00:29.693Z,26.00
2018-04-12T14:02:57.378Z,25.90
2018-04-12T14:05:24.977Z,25.70
2018-04-12T14:07:54.555Z,25.30
2018-04-12T14:10:34.035Z,25.30
2018-04-12T14:13:08.314Z,25.50
2018-04-12T14:15:35.880Z,25.50
2018-04-12T14:18:09.077Z,25.60
2018-04-12T14:20:43.790Z,25.90
2018-04-12T14:23:11.384Z,26.10
2018-04-12T14:25:45.648Z,26.20
2018-04-12T14:28:15.234Z,26.20
2018-04-12T14:30:42.857Z,25.90
2018-04-12T14:33:10.446Z,25.60
2018-04-12T14:35:38.057Z,25.30
2018-04-12T14:38:05.654Z,25.10
2018-04-12T14:40:39.895Z,24.80
2018-04-12T14:43:13.355Z,24.80
2018-04-12T14:45:40.944Z,24.80
2018-04-12T14:48:09.313Z,24.60
2018-04-12T14:50:37.684Z,24.40
2018-04-12T14:53:06.145Z,24.20
2018-04-12T14:55:33.780Z,24.20
2018-04-12T14:58:01.389Z,24.00
2018-04-12T15:00:29.762Z,23.40
2018-04-12T15:02:57.338Z,23.30
2018-04-12T15:05:36.652Z,23.30
2018-04-12T15:08:04.273Z,23.20
2018-04-12T15:10:37.675Z,23.00
2018-04-12T15:13:05.228Z,22.80
2018-04-12T15:15:32.839Z,22.70
2018-04-12T15:18:07.030Z,22.50
2018-04-12T15:20:45.784Z,22.40
2018-04-12T15:23:30.735Z,22.50
2018-04-12T15:26:02.270Z,22.50
2018-04-12T15:28:35.893Z,22.50
2018-04-12T15:31:03.513Z,22.50
2018-04-12T15:33:31.060Z,22.40
2018-04-12T15:35:58.661Z,22.40
2018-04-12T15:38:37.929Z,22.40
2018-04-12T15:41:05.491Z,22.30
2018-04-12T15:43:33.291Z,22.40
2018-04-12T15:46:09.255Z,22.30
2018-04-12T15:48:36.835Z,22.20
2018-04-12T15:51:04.444Z,22.20
2018-04-12T15:53:43.824Z,22.10
2018-04-12T15:56:12.463Z,22.10
2018-04-12T15:58:40.084Z,22.00
2018-04-12T16:01:13.549Z,22.00
2018-04-12T16:03:52.527Z,21.90
2018-04-12T16:06:20.913Z,21.80
2018-04-12T16:08:49.317Z,21.70
2018-04-12T16:11:22.923Z,21.70
2018-04-12T16:13:56.299Z,21.70
2018-04-12T16:16:23.951Z,21.60
2018-04-12T16:18:52.327Z,21.40
2018-04-12T16:21:20.691Z,21.30
2018-04-12T16:23:48.278Z,21.30
2018-04-12T16:26:15.888Z,21.30
2018-04-12T16:28:49.444Z,21.20
2018-04-12T16:31:17.075Z,21.20
2018-04-12T16:33:44.690Z,21.20
2018-04-12T16:36:12.294Z,21.20
2018-04-12T16:38:45.510Z,21.10
2018-04-12T16:41:13.112Z,21.10
2018-04-12T16:43:40.726Z,21.10
2018-04-12T16:46:14.971Z,21.00
2018-04-12T16:48:56.150Z,21.00
2018-04-12T16:51:30.597Z,21.00
2018-04-12T16:53:59.059Z,20.70
2018-04-12T16:56:26.730Z,20.70
2018-04-12T16:59:06.004Z,20.20
2018-04-12T17:01:42.369Z,20.00
2018-04-12T17:04:27.781Z,19.70
2018-04-12T17:06:55.411Z,19.60
2018-04-12T17:09:35.483Z,19.40
2018-04-12T17:12:03.843Z,19.20
2018-04-12T17:14:36.593Z,19.00
2018-04-12T17:17:14.182Z,19.00
2018-04-12T17:19:47.945Z,18.90
2018-04-12T17:22:15.551Z,18.80
2018-04-12T17:24:58.328Z,18.70
2018-04-12T17:27:29.859Z,18.60
2018-04-12T17:30:09.789Z,18.40
2018-04-12T17:35:56.054Z,18.20
2018-04-12T17:38:23.676Z,18.20
2018-04-12T17:40:51.296Z,18.10
2018-04-12T17:43:38.817Z,18.00
2018-04-12T17:46:06.442Z,18.00
2018-04-12T17:48:34.101Z,17.90
2018-04-12T17:51:02.456Z,17.90
2018-04-12T17:53:32.128Z,17.80
2018-04-12T17:58:48.804Z,17.70
2018-04-12T18:01:22.372Z,17.70
2018-04-12T18:03:50.001Z,17.70
2018-04-12T18:06:17.618Z,17.70
2018-04-12T18:08:45.209Z,17.70
2018-04-12T18:11:12.776Z,17.60
2018-04-12T18:13:40.332Z,17.50
2018-04-12T18:16:13.934Z,17.50
2018-04-12T18:18:41.545Z,17.40
2018-04-12T18:21:09.172Z,17.30
2018-04-12T18:23:49.743Z,17.30
2018-04-12T18:26:17.326Z,17.20
2018-04-12T18:28:44.918Z,17.10
2018-04-12T18:31:13.299Z,17.10
2018-04-12T18:33:42.724Z,17.00
2018-04-12T18:36:11.324Z,17.00
2018-04-12T18:38:40.027Z,17.00
2018-04-12T18:41:07.615Z,17.00
2018-04-12T18:43:47.028Z,16.90
2018-04-12T18:46:20.444Z,16.80
2018-04-12T18:48:48.090Z,16.80
2018-04-12T18:51:21.408Z,16.70
2018-04-12T18:53:49.022Z,16.60
2018-04-12T18:56:16.644Z,16.60
2018-04-12T18:58:55.406Z,16.50
2018-04-12T19:01:23.072Z,16.40
2018-04-12T19:03:50.690Z,16.40
2018-04-12T19:06:28.073Z,16.30
2018-04-12T19:09:06.697Z,16.30
2018-04-12T19:11:51.383Z,16.20
2018-04-12T19:14:33.005Z,16.20
2018-04-12T19:17:07.422Z,16.10
2018-04-12T19:19:45.447Z,16.00
2018-04-12T19:22:14.569Z,15.90
2018-04-12T19:24:42.929Z,15.80
2018-04-12T19:27:21.648Z,15.80
2018-04-12T19:29:49.277Z,15.80
2018-04-12T19:32:22.621Z,15.70
2018-04-12T19:34:50.993Z,15.60
2018-04-12T19:37:18.564Z,15.60
2018-04-12T19:39:52.732Z,15.60
2018-04-12T19:42:20.437Z,15.60
2018-04-12T19:44:48.898Z,15.40
2018-04-12T19:47:16.516Z,15.40
2018-04-12T19:50:00.357Z,15.40
2018-04-12T19:52:31.712Z,15.30
2018-04-12T19:54:59.311Z,15.20
2018-04-12T19:57:26.942Z,15.10
2018-04-12T19:59:56.636Z,15.10
2018-04-12T20:02:29.984Z,15.00
2018-04-12T20:05:07.400Z,15.00
2018-04-12T20:07:35.020Z,14.90
2018-04-12T20:10:15.529Z,14.80
2018-04-12T20:12:48.933Z,14.80
2018-04-12T20:15:22.338Z,14.70
2018-04-12T20:17:49.954Z,14.60
2018-04-12T20:20:17.596Z,14.60
2018-04-12T20:22:57.287Z,14.60
2018-04-12T20:25:24.868Z,14.50
2018-04-12T20:27:52.464Z,14.60
2018-04-12T20:30:20.671Z,14.70
2018-04-12T20:32:48.306Z,14.70
2018-04-12T20:35:27.644Z,14.70
2018-04-12T20:37:55.299Z,14.70
2018-04-12T20:40:28.544Z,14.60
2018-04-12T20:43:13.854Z,14.50
2018-04-12T20:45:56.009Z,14.50
2018-04-12T20:48:36.136Z,14.60
2018-04-12T20:51:09.516Z,14.60
2018-04-12T20:53:37.124Z,14.60
2018-04-12T20:56:04.760Z,14.50
2018-04-12T20:58:32.344Z,14.40
2018-04-12T21:01:00.700Z,14.40
2018-04-12T21:03:28.327Z,14.40
2018-04-12T21:05:55.940Z,14.30
2018-04-12T21:08:30.222Z,14.10
2018-04-12T21:11:04.814Z,14.10
2018-04-12T21:13:32.457Z,14.00
2018-04-12T21:16:00.063Z,13.90
2018-04-12T21:18:27.674Z,13.80
2018-04-12T21:21:01.082Z,13.80
2018-04-12T21:23:34.516Z,13.70
2018-04-12T21:26:07.879Z,13.70
2018-04-12T21:28:35.470Z,13.70
2018-04-12T21:31:08.671Z,13.80
2018-04-12T21:33:36.283Z,13.80
2018-04-12T21:36:03.892Z,13.70
2018-04-12T21:38:37.249Z,13.70
2018-04-12T21:41:10.843Z,13.80
2018-04-12T21:43:38.441Z,13.80
2018-04-12T21:46:11.854Z,13.80
2018-04-12T21:48:45.319Z,13.80
2018-04-12T21:51:12.955Z,13.80
2018-04-12T21:53:46.306Z,13.80
2018-04-12T21:56:19.868Z,13.80
2018-04-12T21:58:47.433Z,13.80
2018-04-12T22:01:27.053Z,13.70
2018-04-12T22:03:54.643Z,13.70
2018-04-12T22:06:22.205Z,13.60
2018-04-12T22:08:49.812Z,13.60
2018-04-12T22:11:23.811Z,13.30
2018-04-12T22:13:51.435Z,13.30
2018-04-12T22:16:19.035Z,13.20
2018-04-12T22:18:47.421Z,13.00
2018-04-12T22:21:23.824Z,12.90
2018-04-12T22:23:51.449Z,13.00
2018-04-12T22:26:19.803Z,12.90
2018-04-12T22:28:59.232Z,12.90
2018-04-12T22:31:32.509Z,12.80
2018-04-12T22:34:00.184Z,12.80
2018-04-12T22:36:27.859Z,12.70
2018-04-12T22:38:55.481Z,12.60
2018-04-12T22:41:23.086Z,12.50
2018-04-12T22:43:50.706Z,12.40
2018-04-12T22:46:18.341Z,12.40
2018-04-12T22:48:45.908Z,12.30
2018-04-12T22:51:19.060Z,12.30
2018-04-12T22:53:47.445Z,12.20
2018-04-12T22:56:15.040Z,12.20
2018-04-12T22:58:43.420Z,12.20
2018-04-12T23:01:16.650Z,12.20
2018-04-12T23:03:44.255Z,12.10
2018-04-12T23:06:12.645Z,12.10
2018-04-12T23:08:40.251Z,12.10
2018-04-12T23:11:07.825Z,12.10
2018-04-12T23:13:47.225Z,12.10
2018-04-12T23:16:14.783Z,12.10
2018-04-12T23:18:48.075Z,12.10
2018-04-12T23:21:15.653Z,12.10
2018-04-12T23:23:43.280Z,12.10
2018-04-12T23:26:10.867Z,12.00
2018-04-12T23:28:44.272Z,12.10
2018-04-12T23:31:11.831Z,12.10
2018-04-12T23:33:39.412Z,12.10
2018-04-12T23:36:07.057Z,12.10
2018-04-12T23:38:34.678Z,12.10
2018-04-12T23:41:02.285Z,12.10
2018-04-12T23:43:41.495Z,12.10
2018-04-12T23:46:14.928Z,12.10
2018-04-12T23:48:42.526Z,12.10
2018-04-12T23:51:10.900Z,12.00
2018-04-12T23:53:45.056Z,11.90
2018-04-12T23:56:18.251Z,11.90
2018-04-12T23:58:50.246Z,11.90
